Time;durP1;ratioP1;P1;durP2;ratioP2;P2;SDS_P1;SDS_P2;PMS_P1;PMS_P2;Temp;Humidity;BMP_temperature;BMP_pressure;BME280_temperature;BME280_humidity;BME280_pressure;Samples;Min_cycle;Max_cycle;Signal;HPM_P1;HPM_P2
2022/02/26 00:00:46;;;;;;;0.10;0.10;;;;;;;;;;5041699;28;20040;-92
2022/02/26 00:03:12;;;;;;;0.10;0.10;;;;;;;;;;5041570;28;20056;-91
2022/02/26 00:05:40;;;;;;;0.10;0.10;;;;;;;;;;5058340;28;20076;-92
2022/02/26 00:08:06;;;;;;;0.10;0.10;;;;;;;;;;5041588;28;20082;-92
2022/02/26 00:10:32;;;;;;;0.10;0.10;;;;;;;;;;5057703;28;20065;-91
2022/02/26 00:12:58;;;;;;;0.10;0.10;;;;;;;;;;5041171;28;20046;-90
2022/02/26 00:15:24;;;;;;;0.10;0.10;;;;;;;;;;5041304;28;20119;-91
2022/02/26 00:17:50;;;;;;;0.10;0.10;;;;;;;;;;5041297;28;20090;-91
2022/02/26 00:20:16;;;;;;;0.10;0.10;;;;;;;;;;5041480;28;20491;-90
2022/02/26 00:22:42;;;;;;;0.00;0.00;;;;;;;;;;5041339;28;20075;-91
2022/02/26 00:25:08;;;;;;;0.10;0.10;;;;;;;;;;5057849;28;20037;-91
2022/02/26 00:27:34;;;;;;;0.10;0.10;;;;;;;;;;5041289;28;20127;-91
2022/02/26 00:30:00;;;;;;;0.10;0.10;;;;;;;;;;5040728;28;20072;-91
2022/02/26 00:32:26;;;;;;;0.00;0.00;;;;;;;;;;5040760;28;20082;-90
2022/02/26 00:34:52;;;;;;;0.10;0.10;;;;;;;;;;5057482;28;20044;-92
2022/02/26 00:37:18;;;;;;;0.10;0.10;;;;;;;;;;5041130;28;20174;-92
2022/02/26 00:39:44;;;;;;;0.10;0.10;;;;;;;;;;5057335;28;20039;-91
2022/02/26 00:42:10;;;;;;;0.03;0.03;;;;;;;;;;5040013;28;20037;-92
2022/02/26 00:44:38;;;;;;;0.10;0.10;;;;;;;;;;5040571;28;20075;-92
2022/02/26 00:47:05;;;;;;;0.10;0.10;;;;;;;;;;5040932;28;20560;-91
2022/02/26 00:49:50;;;;;;;0.10;0.10;;;;;;;;;;5057120;28;20499;-92
2022/02/26 00:52:17;;;;;;;0.10;0.10;;;;;;;;;;5043299;28;20047;-92
2022/02/26 00:54:43;;;;;;;0.10;0.10;;;;;;;;;;5040472;28;20086;-92
2022/02/26 00:57:09;;;;;;;0.10;0.10;;;;;;;;;;5057360;28;20041;-92
2022/02/26 00:59:35;;;;;;;0.10;0.10;;;;;;;;;;5040748;28;20043;-93
2022/02/26 01:02:01;;;;;;;0.10;0.10;;;;;;;;;;5057052;28;20040;-91
2022/02/26 01:04:27;;;;;;;0.10;0.10;;;;;;;;;;5056867;28;20505;-92
2022/02/26 01:06:53;;;;;;;0.10;0.10;;;;;;;;;;5057047;28;20043;-92
2022/02/26 01:09:19;;;;;;;0.10;0.10;;;;;;;;;;5040165;28;20041;-90
2022/02/26 01:11:45;;;;;;;0.10;0.10;;;;;;;;;;5040384;28;20072;-93
2022/02/26 01:14:11;;;;;;;0.10;0.10;;;;;;;;;;5040556;28;20097;-92
2022/02/26 01:16:37;;;;;;;0.10;0.10;;;;;;;;;;5056541;28;20079;-92
2022/02/26 01:19:04;;;;;;;0.10;0.10;;;;;;;;;;5040407;28;20043;-93
2022/02/26 01:21:30;;;;;;;0.10;0.10;;;;;;;;;;5056498;28;20044;-93
2022/02/26 01:23:56;;;;;;;0.10;0.10;;;;;;;;;;5040131;28;20376;-92
2022/02/26 01:26:22;;;;;;;0.10;0.10;;;;;;;;;;5056800;28;20036;-92
2022/02/26 01:28:48;;;;;;;0.10;0.10;;;;;;;;;;5056227;28;20040;-91
2022/02/26 01:31:14;;;;;;;0.10;0.10;;;;;;;;;;5039823;28;20163;-92
2022/02/26 01:33:40;;;;;;;0.10;0.10;;;;;;;;;;5039843;28;20601;-91
2022/02/26 01:36:06;;;;;;;0.10;0.10;;;;;;;;;;5056106;28;20051;-92
2022/02/26 01:38:32;;;;;;;0.10;0.10;;;;;;;;;;5056237;28;20043;-92
2022/02/26 01:40:58;;;;;;;0.10;0.10;;;;;;;;;;5039739;28;20150;-92
2022/02/26 01:43:24;;;;;;;0.10;0.10;;;;;;;;;;5039712;28;20080;-93
2022/02/26 01:45:51;;;;;;;0.10;0.10;;;;;;;;;;5039713;28;20072;-91
2022/02/26 01:48:17;;;;;;;0.10;0.10;;;;;;;;;;5056011;28;20070;-92
2022/02/26 01:50:43;;;;;;;0.10;0.10;;;;;;;;;;5039932;28;20036;-92
2022/02/26 01:53:10;;;;;;;0.10;0.10;;;;;;;;;;5039244;28;20036;-91
2022/02/26 01:55:36;;;;;;;0.10;0.10;;;;;;;;;;5039024;28;20048;-91
2022/02/26 01:58:02;;;;;;;0.10;0.10;;;;;;;;;;5039131;28;20049;-91
2022/02/26 02:00:28;;;;;;;0.10;0.10;;;;;;;;;;5055948;28;20077;-91
2022/02/26 02:02:56;;;;;;;0.10;0.10;;;;;;;;;;5039440;28;20036;-91
2022/02/26 02:05:23;;;;;;;0.05;0.05;;;;;;;;;;5039442;28;20120;-91
2022/02/26 02:07:49;;;;;;;0.10;0.10;;;;;;;;;;5039285;28;20041;-92
2022/02/26 02:10:18;;;;;;;0.10;0.10;;;;;;;;;;5039369;28;20075;-92
2022/02/26 02:12:44;;;;;;;0.10;0.10;;;;;;;;;;5056160;28;20037;-92
2022/02/26 02:15:10;;;;;;;0.10;0.10;;;;;;;;;;5039446;28;20098;-92
2022/02/26 02:17:36;;;;;;;0.10;0.10;;;;;;;;;;5039909;28;20032;-92
2022/02/26 02:20:02;;;;;;;0.10;0.10;;;;;;;;;;5056808;28;20036;-92
2022/02/26 02:22:28;;;;;;;0.10;0.10;;;;;;;;;;5039996;28;20085;-92
2022/02/26 02:24:54;;;;;;;0.10;0.10;;;;;;;;;;5038783;28;20123;-91
2022/02/26 02:27:21;;;;;;;0.10;0.10;;;;;;;;;;5055750;28;20040;-93
2022/02/26 02:29:47;;;;;;;0.10;0.10;;;;;;;;;;5055960;28;20032;-92
2022/02/26 02:32:13;;;;;;;0.10;0.10;;;;;;;;;;5039245;28;20040;-92
2022/02/26 02:34:39;;;;;;;0.10;0.10;;;;;;;;;;5055730;28;20047;-92
2022/02/26 02:37:10;;;;;;;0.00;0.00;;;;;;;;;;5038878;28;20067;-92
2022/02/26 02:39:36;;;;;;;0.10;0.10;;;;;;;;;;5039459;28;20098;-92
2022/02/26 02:42:02;;;;;;;0.00;0.00;;;;;;;;;;5039230;28;20142;-92
2022/02/26 02:44:28;;;;;;;0.10;0.10;;;;;;;;;;5055113;28;20089;-91
2022/02/26 02:46:54;;;;;;;0.10;0.10;;;;;;;;;;5055114;28;20080;-91
2022/02/26 02:49:20;;;;;;;0.05;0.05;;;;;;;;;;5038506;28;20044;-91
2022/02/26 02:51:46;;;;;;;0.00;0.00;;;;;;;;;;5055410;28;20040;-91
2022/02/26 02:54:12;;;;;;;0.10;0.10;;;;;;;;;;5038518;28;20033;-91
2022/02/26 02:56:38;;;;;;;0.00;0.00;;;;;;;;;;5054888;28;20063;-90
2022/02/26 02:59:04;;;;;;;0.10;0.10;;;;;;;;;;5038257;28;20051;-90
2022/02/26 03:01:30;;;;;;;0.10;0.10;;;;;;;;;;5038408;28;20041;-91
2022/02/26 03:03:56;;;;;;;0.00;0.00;;;;;;;;;;5055500;28;20049;-91
2022/02/26 03:06:24;;;;;;;0.10;0.10;;;;;;;;;;5042364;28;20049;-91
2022/02/26 03:08:50;;;;;;;0.00;0.00;;;;;;;;;;5042525;28;20135;-91
2022/02/26 03:11:18;;;;;;;0.10;0.10;;;;;;;;;;5058858;28;20113;-91
2022/02/26 03:13:45;;;;;;;0.10;0.10;;;;;;;;;;5042442;28;20083;-90
2022/02/26 03:16:11;;;;;;;0.10;0.10;;;;;;;;;;5042329;28;20040;-91
2022/02/26 03:18:37;;;;;;;0.10;0.10;;;;;;;;;;5042569;28;20048;-91
2022/02/26 03:21:03;;;;;;;0.10;0.10;;;;;;;;;;5058563;28;20079;-91
2022/02/26 03:23:29;;;;;;;0.10;0.10;;;;;;;;;;5059079;28;20399;-91
2022/02/26 03:25:55;;;;;;;0.10;0.10;;;;;;;;;;5041955;28;20125;-91
2022/02/26 03:28:21;;;;;;;0.10;0.10;;;;;;;;;;5058668;28;20495;-91
2022/02/26 03:30:47;;;;;;;0.10;0.10;;;;;;;;;;5042144;28;20040;-91
2022/02/26 03:33:13;;;;;;;0.10;0.10;;;;;;;;;;5041837;28;20040;-91
2022/02/26 03:35:39;;;;;;;0.10;0.10;;;;;;;;;;5041753;28;20032;-91
2022/02/26 03:38:06;;;;;;;0.10;0.10;;;;;;;;;;5041806;28;20074;-91
2022/02/26 03:40:31;;;;;;;0.05;0.05;;;;;;;;;;5058317;28;20078;-90
2022/02/26 03:42:57;;;;;;;0.10;0.10;;;;;;;;;;5074899;28;20414;-90
2022/02/26 03:45:23;;;;;;;0.10;0.10;;;;;;;;;;5041607;28;20040;-91
2022/02/26 03:47:49;;;;;;;0.00;0.00;;;;;;;;;;5041591;28;20041;-90
2022/02/26 03:50:15;;;;;;;0.10;0.10;;;;;;;;;;5058377;28;20043;-91
2022/02/26 03:52:41;;;;;;;0.00;0.00;;;;;;;;;;5041625;28;20067;-91
2022/02/26 03:55:08;;;;;;;0.10;0.10;;;;;;;;;;5041244;28;20056;-91
2022/02/26 03:57:34;;;;;;;0.10;0.10;;;;;;;;;;5041620;28;20037;-91
2022/02/26 04:00:00;;;;;;;0.00;0.00;;;;;;;;;;5058105;28;20553;-90
2022/02/26 04:02:26;;;;;;;0.03;0.03;;;;;;;;;;5041396;28;20037;-90
2022/02/26 04:04:52;;;;;;;0.10;0.10;;;;;;;;;;5041242;28;20059;-90
2022/02/26 04:07:18;;;;;;;0.10;0.10;;;;;;;;;;5041046;28;20043;-91
2022/02/26 04:09:44;;;;;;;0.10;0.10;;;;;;;;;;5057552;28;20441;-91
2022/02/26 04:12:10;;;;;;;0.10;0.10;;;;;;;;;;5041332;28;20123;-90
2022/02/26 04:14:36;;;;;;;0.10;0.10;;;;;;;;;;5041123;28;20066;-91
2022/02/26 04:17:02;;;;;;;0.10;0.10;;;;;;;;;;5040906;28;20493;-91
2022/02/26 04:19:28;;;;;;;0.10;0.10;;;;;;;;;;5041105;28;20044;-91
2022/02/26 04:21:54;;;;;;;0.10;0.10;;;;;;;;;;5041171;28;20395;-91
2022/02/26 04:24:21;;;;;;;0.10;0.10;;;;;;;;;;5041225;28;20090;-90
2022/02/26 04:26:47;;;;;;;0.10;0.10;;;;;;;;;;5041142;28;20084;-92
2022/02/26 04:29:13;;;;;;;0.10;0.10;;;;;;;;;;5040722;28;20083;-91
2022/02/26 04:31:39;;;;;;;0.00;0.00;;;;;;;;;;5040987;28;20387;-91
2022/02/26 04:34:05;;;;;;;0.08;0.08;;;;;;;;;;5040564;28;20041;-91
2022/02/26 04:36:31;;;;;;;0.10;0.10;;;;;;;;;;5057643;28;20039;-91
2022/02/26 04:38:57;;;;;;;0.10;0.10;;;;;;;;;;5040706;28;20048;-91
2022/02/26 04:41:23;;;;;;;0.05;0.05;;;;;;;;;;5057448;28;20102;-91
2022/02/26 04:43:49;;;;;;;0.10;0.10;;;;;;;;;;5057274;28;20086;-91
2022/02/26 04:46:15;;;;;;;0.10;0.10;;;;;;;;;;5040465;28;20441;-91
2022/02/26 04:48:41;;;;;;;0.10;0.10;;;;;;;;;;5040426;28;20040;-91
2022/02/26 04:51:08;;;;;;;0.10;0.10;;;;;;;;;;5056975;28;20079;-92
2022/02/26 04:53:35;;;;;;;0.10;0.10;;;;;;;;;;5040747;28;20546;-91
2022/02/26 04:56:02;;;;;;;0.10;0.10;;;;;;;;;;5040475;28;20060;-91
2022/02/26 04:58:28;;;;;;;0.10;0.10;;;;;;;;;;5056929;28;20048;-92
2022/02/26 05:00:54;;;;;;;0.10;0.10;;;;;;;;;;5056933;28;20400;-91
2022/02/26 05:03:20;;;;;;;0.10;0.10;;;;;;;;;;5057052;28;20524;-91
2022/02/26 05:05:45;;;;;;;0.10;0.10;;;;;;;;;;5040217;28;20052;-91
2022/02/26 05:08:11;;;;;;;0.05;0.05;;;;;;;;;;5039872;28;20373;-91
2022/02/26 05:10:37;;;;;;;0.10;0.10;;;;;;;;;;5040467;28;20036;-91
2022/02/26 05:13:04;;;;;;;0.10;0.10;;;;;;;;;;5056606;28;20100;-90
2022/02/26 05:15:30;;;;;;;0.00;0.00;;;;;;;;;;5056275;28;20036;-90
2022/02/26 05:17:56;;;;;;;0.00;0.00;;;;;;;;;;5056475;28;20044;-90
2022/02/26 05:20:22;;;;;;;0.00;0.00;;;;;;;;;;5056341;28;20047;-90
2022/02/26 05:22:48;;;;;;;0.00;0.00;;;;;;;;;;5040048;28;20391;-91
2022/02/26 05:25:14;;;;;;;0.00;0.00;;;;;;;;;;5039562;28;20041;-91
2022/02/26 05:27:43;;;;;;;0.10;0.10;;;;;;;;;;5039343;28;20051;-90
2022/02/26 05:30:11;;;;;;;0.10;0.10;;;;;;;;;;5039800;28;20039;-91
2022/02/26 05:32:37;;;;;;;0.10;0.10;;;;;;;;;;5039477;28;20048;-93
2022/02/26 05:35:03;;;;;;;0.10;0.10;;;;;;;;;;5039375;28;20440;-91
2022/02/26 05:37:29;;;;;;;0.10;0.10;;;;;;;;;;5039759;28;20044;-92
2022/02/26 05:39:55;;;;;;;0.10;0.10;;;;;;;;;;5056109;28;20044;-92
2022/02/26 05:42:21;;;;;;;0.00;0.00;;;;;;;;;;5056253;28;20099;-91
2022/02/26 05:44:47;;;;;;;0.10;0.10;;;;;;;;;;5055654;28;20041;-92
2022/02/26 05:47:13;;;;;;;0.10;0.10;;;;;;;;;;5055968;28;20036;-91
2022/02/26 05:49:39;;;;;;;0.10;0.10;;;;;;;;;;5039602;28;20475;-92
2022/02/26 05:52:06;;;;;;;0.10;0.10;;;;;;;;;;5039153;28;20108;-91
2022/02/26 05:54:32;;;;;;;0.10;0.10;;;;;;;;;;5055547;28;20076;-92
2022/02/26 05:56:58;;;;;;;0.10;0.10;;;;;;;;;;5039542;28;20067;-91
2022/02/26 05:59:23;;;;;;;0.10;0.10;;;;;;;;;;5039188;28;20040;-92
2022/02/26 06:04:40;;;;;;;0.10;0.10;;;;;;;;;;5357386;22;20232;-92
2022/02/26 06:07:06;;;;;;;0.10;0.10;;;;;;;;;;5002876;28;20453;-93
2022/02/26 06:09:32;;;;;;;0.10;0.10;;;;;;;;;;5003129;28;20073;-93
2022/02/26 06:11:58;;;;;;;0.10;0.10;;;;;;;;;;5019619;28;20064;-92
2022/02/26 06:14:24;;;;;;;0.10;0.10;;;;;;;;;;5003224;28;20459;-93
2022/02/26 06:16:50;;;;;;;0.10;0.10;;;;;;;;;;5003227;28;20068;-93
2022/02/26 06:19:16;;;;;;;0.00;0.00;;;;;;;;;;5019736;28;20044;-93
2022/02/26 06:21:42;;;;;;;0.00;0.00;;;;;;;;;;5002994;28;20118;-93
2022/02/26 06:24:08;;;;;;;0.10;0.10;;;;;;;;;;5002713;28;20403;-93
2022/02/26 06:26:35;;;;;;;0.10;0.10;;;;;;;;;;5002952;28;20040;-93
2022/02/26 06:29:01;;;;;;;0.10;0.10;;;;;;;;;;5019106;28;20045;-93
2022/02/26 06:31:27;;;;;;;0.10;0.10;;;;;;;;;;5003126;28;20482;-92
2022/02/26 06:33:53;;;;;;;0.10;0.10;;;;;;;;;;5002947;28;20033;-93
2022/02/26 06:36:19;;;;;;;0.10;0.10;;;;;;;;;;5002590;28;20068;-91
2022/02/26 06:38:45;;;;;;;0.10;0.10;;;;;;;;;;5002663;28;20099;-92
2022/02/26 06:41:11;;;;;;;0.10;0.10;;;;;;;;;;5006569;28;20498;-92
2022/02/26 06:43:37;;;;;;;0.08;0.08;;;;;;;;;;5006708;28;20080;-92
2022/02/26 06:46:05;;;;;;;0.55;0.52;;;;;;;;;;5006358;28;20051;-91
2022/02/26 06:48:31;;;;;;;0.10;0.10;;;;;;;;;;5006656;28;20044;-92
2022/02/26 06:50:57;;;;;;;0.03;0.03;;;;;;;;;;5006813;28;20033;-92
2022/02/26 06:53:23;;;;;;;0.10;0.10;;;;;;;;;;5006568;28;20063;-93
2022/02/26 06:55:49;;;;;;;0.10;0.10;;;;;;;;;;5006595;28;20487;-91
2022/02/26 06:58:15;;;;;;;0.00;0.00;;;;;;;;;;5006645;28;20072;-92
2022/02/26 07:00:41;;;;;;;0.00;0.00;;;;;;;;;;5006413;28;20041;-93
2022/02/26 07:03:10;;;;;;;0.00;0.00;;;;;;;;;;5006698;28;20044;-94
2022/02/26 07:05:36;;;;;;;0.00;0.00;;;;;;;;;;5007453;28;20044;-90
2022/02/26 07:08:02;;;;;;;0.00;0.00;;;;;;;;;;5005801;28;20396;-91
2022/02/26 07:10:28;;;;;;;0.00;0.00;;;;;;;;;;5006058;28;20040;-90
2022/02/26 07:12:54;;;;;;;0.00;0.00;;;;;;;;;;5006535;28;20046;-93
2022/02/26 07:15:20;;;;;;;0.00;0.00;;;;;;;;;;5022885;28;20166;-94
2022/02/26 07:17:46;;;;;;;0.00;0.00;;;;;;;;;;5006728;28;20393;-92
2022/02/26 07:20:13;;;;;;;0.00;0.00;;;;;;;;;;5006216;28;20037;-91
2022/02/26 07:22:39;;;;;;;0.00;0.00;;;;;;;;;;5006072;28;20037;-93
2022/02/26 07:25:05;;;;;;;0.00;0.00;;;;;;;;;;5022427;28;20570;-91
2022/02/26 07:27:31;;;;;;;0.00;0.00;;;;;;;;;;5006055;28;20045;-91
2022/02/26 07:29:57;;;;;;;0.00;0.00;;;;;;;;;;5021805;28;20502;-91
2022/02/26 07:32:23;;;;;;;0.00;0.00;;;;;;;;;;5005914;28;20251;-92
2022/02/26 07:34:49;;;;;;;0.00;0.00;;;;;;;;;;5005699;28;20037;-93
2022/02/26 07:37:15;;;;;;;0.00;0.00;;;;;;;;;;5022202;28;20399;-92
2022/02/26 07:39:41;;;;;;;0.00;0.00;;;;;;;;;;5005947;28;20361;-92
2022/02/26 07:42:07;;;;;;;0.00;0.00;;;;;;;;;;5005734;28;20052;-91
2022/02/26 07:44:33;;;;;;;0.00;0.00;;;;;;;;;;5005789;28;20044;-92
2022/02/26 07:47:00;;;;;;;0.10;0.10;;;;;;;;;;5021998;28;20037;-89
2022/02/26 07:49:29;;;;;;;0.00;0.00;;;;;;;;;;5006273;28;20040;-91
2022/02/26 07:51:55;;;;;;;0.00;0.00;;;;;;;;;;5004469;28;20403;-91
2022/02/26 07:54:21;;;;;;;0.00;0.00;;;;;;;;;;5005071;28;20040;-90
2022/02/26 07:56:48;;;;;;;0.00;0.00;;;;;;;;;;5004936;28;20041;-90
2022/02/26 07:59:14;;;;;;;0.10;0.10;;;;;;;;;;5021712;28;20407;-91
2022/02/26 08:01:50;;;;;;;0.10;0.10;;;;;;;;;;5014297;28;20072;-95
2022/02/26 08:04:16;;;;;;;0.10;0.10;;;;;;;;;;5005050;28;20062;-96
2022/02/26 08:06:44;;;;;;;0.10;0.10;;;;;;;;;;5006629;28;20131;-93
2022/02/26 08:09:19;;;;;;;0.00;0.00;;;;;;;;;;5012192;28;20048;-93
2022/02/26 08:11:46;;;;;;;0.05;0.05;;;;;;;;;;5024178;28;20049;-93
2022/02/26 08:14:12;;;;;;;0.10;0.10;;;;;;;;;;5038197;28;20079;-93
2022/02/26 08:16:38;;;;;;;0.10;0.10;;;;;;;;;;5005415;28;20086;-92
2022/02/26 08:19:04;;;;;;;0.15;0.15;;;;;;;;;;5005421;28;20412;-95
2022/02/26 08:21:34;;;;;;;0.10;0.10;;;;;;;;;;5022063;28;20123;-92
2022/02/26 08:24:00;;;;;;;0.10;0.10;;;;;;;;;;5005980;28;20532;-92
2022/02/26 08:26:25;;;;;;;0.10;0.10;;;;;;;;;;5004734;28;20131;-93
2022/02/26 08:28:53;;;;;;;0.10;0.10;;;;;;;;;;5021501;28;20045;-93
2022/02/26 08:31:19;;;;;;;0.10;0.10;;;;;;;;;;5005558;28;20076;-93
2022/02/26 08:33:45;;;;;;;0.10;0.10;;;;;;;;;;5005851;28;20041;-93
2022/02/26 08:36:11;;;;;;;0.20;0.20;;;;;;;;;;5004992;28;20199;-89
2022/02/26 08:38:37;;;;;;;0.10;0.10;;;;;;;;;;5003962;28;20041;-91
2022/02/26 08:41:03;;;;;;;0.10;0.10;;;;;;;;;;5004223;28;20127;-91
2022/02/26 08:43:29;;;;;;;0.10;0.10;;;;;;;;;;5004503;28;20126;-92
2022/02/26 08:45:55;;;;;;;0.10;0.10;;;;;;;;;;5003646;28;20483;-89
2022/02/26 08:48:21;;;;;;;0.10;0.10;;;;;;;;;;5019884;28;20132;-89
2022/02/26 08:50:47;;;;;;;0.10;0.10;;;;;;;;;;5003597;28;20037;-89
2022/02/26 08:53:13;;;;;;;0.10;0.10;;;;;;;;;;5035985;28;20040;-90
2022/02/26 08:55:39;;;;;;;0.10;0.10;;;;;;;;;;5019683;28;20041;-90
2022/02/26 08:58:05;;;;;;;0.10;0.10;;;;;;;;;;5003519;28;20499;-90
2022/02/26 09:00:31;;;;;;;0.10;0.10;;;;;;;;;;5019553;28;20063;-90
2022/02/26 09:02:57;;;;;;;0.30;0.30;;;;;;;;;;5018509;28;20546;-89
2022/02/26 09:05:23;;;;;;;0.10;0.10;;;;;;;;;;5036145;28;20048;-92
2022/02/26 09:07:49;;;;;;;0.10;0.10;;;;;;;;;;5003294;28;20045;-88
2022/02/26 09:10:15;;;;;;;0.10;0.10;;;;;;;;;;5019989;28;20505;-90
2022/02/26 09:12:41;;;;;;;0.20;0.20;;;;;;;;;;5003201;28;20160;-89
2022/02/26 09:15:08;;;;;;;0.10;0.10;;;;;;;;;;5019340;28;20072;-91
2022/02/26 09:17:33;;;;;;;0.10;0.10;;;;;;;;;;5002853;28;20040;-90
2022/02/26 09:19:59;;;;;;;0.10;0.10;;;;;;;;;;5002949;28;20382;-88
2022/02/26 09:22:25;;;;;;;0.10;0.10;;;;;;;;;;5019131;28;20128;-89
2022/02/26 09:24:51;;;;;;;0.10;0.10;;;;;;;;;;5002917;28;20041;-91
2022/02/26 09:27:17;;;;;;;0.10;0.10;;;;;;;;;;5019063;28;20056;-89
2022/02/26 09:29:43;;;;;;;0.10;0.10;;;;;;;;;;5019102;28;20695;-89
2022/02/26 09:32:09;;;;;;;0.10;0.10;;;;;;;;;;5002943;28;20068;-91
2022/02/26 09:34:35;;;;;;;0.10;0.10;;;;;;;;;;5002669;28;20049;-91
2022/02/26 09:37:01;;;;;;;0.10;0.10;;;;;;;;;;5018893;28;20087;-90
2022/02/26 09:39:27;;;;;;;0.17;0.17;;;;;;;;;;5002545;28;20037;-89
2022/02/26 09:41:53;;;;;;;0.10;0.10;;;;;;;;;;5002788;28;20041;-90
2022/02/26 09:44:20;;;;;;;0.10;0.10;;;;;;;;;;5035338;28;20076;-90
2022/02/26 09:46:46;;;;;;;0.10;0.10;;;;;;;;;;5002589;28;20051;-90
2022/02/26 09:49:12;;;;;;;0.10;0.10;;;;;;;;;;5002501;28;20044;-89
2022/02/26 09:51:40;;;;;;;0.10;0.10;;;;;;;;;;5002986;28;20045;-90
2022/02/26 09:54:06;;;;;;;0.10;0.10;;;;;;;;;;5018796;28;20041;-88
2022/02/26 09:56:32;;;;;;;0.10;0.10;;;;;;;;;;5034810;28;20047;-91
2022/02/26 09:58:58;;;;;;;0.10;0.10;;;;;;;;;;5018558;28;20041;-90
2022/02/26 10:01:24;;;;;;;0.10;0.10;;;;;;;;;;5018425;28;20040;-89
2022/02/26 10:03:50;;;;;;;0.10;0.10;;;;;;;;;;5018310;28;20077;-89
2022/02/26 10:06:16;;;;;;;0.10;0.10;;;;;;;;;;5018379;28;20088;-89
2022/02/26 10:08:52;;;;;;;0.10;0.10;;;;;;;;;;5018245;28;20037;-88
2022/02/26 10:11:24;;;;;;;0.10;0.10;;;;;;;;;;5018459;28;20086;-89
2022/02/26 10:13:51;;;;;;;0.10;0.10;;;;;;;;;;5017730;28;20040;-91
2022/02/26 10:16:17;;;;;;;0.10;0.10;;;;;;;;;;4997511;28;20051;-90
2022/02/26 10:18:53;;;;;;;0.10;0.10;;;;;;;;;;4999263;28;20048;-91
2022/02/26 10:21:29;;;;;;;0.10;0.10;;;;;;;;;;5015501;28;20041;-91
2022/02/26 10:23:55;;;;;;;0.10;0.10;;;;;;;;;;5001970;28;20045;-90
2022/02/26 10:26:24;;;;;;;0.10;0.10;;;;;;;;;;5014581;28;20385;-90
2022/02/26 10:28:50;;;;;;;0.10;0.10;;;;;;;;;;4998944;28;20492;-91
2022/02/26 10:31:16;;;;;;;0.20;0.20;;;;;;;;;;5015202;28;20043;-91
2022/02/26 10:33:42;;;;;;;0.10;0.10;;;;;;;;;;5002051;28;20029;-92
2022/02/26 10:36:09;;;;;;;0.40;0.40;;;;;;;;;;4998195;28;20373;-90
2022/02/26 10:38:35;;;;;;;0.10;0.10;;;;;;;;;;4982236;28;20049;-91
2022/02/26 10:41:08;;;;;;;0.10;0.10;;;;;;;;;;4998319;28;20049;-89
2022/02/26 10:43:37;;;;;;;0.10;0.10;;;;;;;;;;4999061;28;20049;-91
2022/02/26 10:46:33;;;;;;;0.10;0.10;;;;;;;;;;5015221;28;20266;-89
2022/02/26 10:49:07;;;;;;;0.10;0.10;;;;;;;;;;5010316;28;20051;-90
2022/02/26 10:51:34;;;;;;;0.10;0.10;;;;;;;;;;4993749;28;20160;-90
2022/02/26 10:54:02;;;;;;;0.10;0.10;;;;;;;;;;5002215;28;20045;-90
2022/02/26 10:56:31;;;;;;;0.10;0.10;;;;;;;;;;5002040;28;20041;-91
2022/02/26 10:58:57;;;;;;;0.10;0.10;;;;;;;;;;5018015;28;20041;-92
2022/02/26 11:01:23;;;;;;;0.10;0.10;;;;;;;;;;5001851;28;20068;-91
2022/02/26 11:03:49;;;;;;;0.10;0.10;;;;;;;;;;5034504;28;20048;-94
2022/02/26 11:06:15;;;;;;;0.10;0.10;;;;;;;;;;5018195;28;20492;-92
2022/02/26 11:08:42;;;;;;;0.10;0.10;;;;;;;;;;5002374;28;20048;-92
2022/02/26 11:11:08;;;;;;;0.10;0.10;;;;;;;;;;5002318;28;20044;-92
2022/02/26 11:13:35;;;;;;;0.10;0.10;;;;;;;;;;5018638;28;20052;-92
2022/02/26 11:16:02;;;;;;;0.10;0.10;;;;;;;;;;5002291;28;20123;-92
2022/02/26 11:18:34;;;;;;;0.10;0.10;;;;;;;;;;5002267;28;20076;-92
2022/02/26 11:21:00;;;;;;;0.10;0.10;;;;;;;;;;5018598;28;20048;-92
2022/02/26 11:23:26;;;;;;;0.10;0.10;;;;;;;;;;5034442;28;20048;-91
2022/02/26 11:25:52;;;;;;;0.10;0.10;;;;;;;;;;5019555;28;20037;-91
2022/02/26 11:28:18;;;;;;;0.10;0.10;;;;;;;;;;5021916;28;20079;-91
2022/02/26 11:30:58;;;;;;;0.10;0.10;;;;;;;;;;5021889;28;20067;-91
2022/02/26 11:33:24;;;;;;;0.10;0.10;;;;;;;;;;5005476;28;20450;-92
2022/02/26 11:35:54;;;;;;;0.10;0.10;;;;;;;;;;5022219;28;20037;-95
2022/02/26 11:38:20;;;;;;;0.10;0.10;;;;;;;;;;5005525;28;20041;-90
2022/02/26 11:40:49;;;;;;;0.10;0.10;;;;;;;;;;5004961;28;20498;-91
2022/02/26 11:43:35;;;;;;;0.10;0.10;;;;;;;;;;5021432;28;20037;-91
2022/02/26 11:46:17;;;;;;;0.10;0.10;;;;;;;;;;5038701;28;20479;-92
2022/02/26 11:48:43;;;;;;;0.10;0.10;;;;;;;;;;5006141;28;20060;-94
2022/02/26 11:51:14;;;;;;;0.10;0.10;;;;;;;;;;5005324;28;20488;-93
2022/02/26 11:53:41;;;;;;;0.10;0.10;;;;;;;;;;5005469;28;20044;-92
2022/02/26 11:56:08;;;;;;;0.10;0.10;;;;;;;;;;5021393;28;20040;-90
2022/02/26 11:58:34;;;;;;;0.10;0.10;;;;;;;;;;5004595;28;20048;-90
2022/02/26 12:01:01;;;;;;;0.10;0.10;;;;;;;;;;5037173;28;20538;-89
2022/02/26 12:03:28;;;;;;;0.10;0.10;;;;;;;;;;5004374;28;20057;-90
2022/02/26 12:06:16;;;;;;;0.10;0.10;;;;;;;;;;5021238;28;20052;-91
2022/02/26 12:08:57;;;;;;;0.10;0.10;;;;;;;;;;5005369;28;20049;-91
2022/02/26 12:11:23;;;;;;;0.10;0.10;;;;;;;;;;5037402;28;20468;-91
2022/02/26 12:13:49;;;;;;;0.10;0.10;;;;;;;;;;5037387;28;20048;-92
2022/02/26 12:16:17;;;;;;;0.10;0.10;;;;;;;;;;5004715;28;20033;-91
2022/02/26 12:18:44;;;;;;;0.10;0.10;;;;;;;;;;5021175;28;20456;-91
2022/02/26 12:21:11;;;;;;;0.20;0.20;;;;;;;;;;5004492;28;20040;-91
2022/02/26 12:23:37;;;;;;;0.10;0.10;;;;;;;;;;5020947;28;20058;-89
2022/02/26 12:26:03;;;;;;;0.10;0.10;;;;;;;;;;5020656;28;20084;-91
2022/02/26 12:28:29;;;;;;;0.10;0.10;;;;;;;;;;5020859;28;20541;-92
2022/02/26 12:31:05;;;;;;;0.10;0.10;;;;;;;;;;5020900;28;20041;-90
2022/02/26 12:33:38;;;;;;;0.10;0.10;;;;;;;;;;5021355;28;20134;-94
2022/02/26 12:36:11;;;;;;;0.10;0.10;;;;;;;;;;5005108;28;20041;-94
2022/02/26 12:38:45;;;;;;;0.10;0.10;;;;;;;;;;5020145;28;20045;-90
2022/02/26 12:41:31;;;;;;;0.10;0.10;;;;;;;;;;5004857;28;20109;-91
2022/02/26 12:43:57;;;;;;;0.10;0.10;;;;;;;;;;5021801;28;20041;-92
2022/02/26 12:46:24;;;;;;;0.10;0.10;;;;;;;;;;5021070;28;20045;-91
2022/02/26 12:48:50;;;;;;;0.43;0.10;;;;;;;;;;5004210;28;20101;-90
2022/02/26 12:51:16;;;;;;;0.10;0.10;;;;;;;;;;5005108;28;20105;-94
2022/02/26 12:53:42;;;;;;;0.10;0.10;;;;;;;;;;5005861;28;20497;-95
2022/02/26 12:56:08;;;;;;;0.10;0.10;;;;;;;;;;5005804;28;20041;-94
2022/02/26 12:58:34;;;;;;;0.10;0.10;;;;;;;;;;5021182;28;20080;-93
2022/02/26 13:01:00;;;;;;;0.10;0.10;;;;;;;;;;5021543;28;20072;-95
2022/02/26 13:03:26;;;;;;;0.10;0.10;;;;;;;;;;5004817;28;20538;-94
2022/02/26 13:05:53;;;;;;;0.10;0.10;;;;;;;;;;5004800;28;20088;-94
2022/02/26 13:08:19;;;;;;;0.10;0.10;;;;;;;;;;5021266;28;20041;-93
2022/02/26 13:10:46;;;;;;;0.10;0.10;;;;;;;;;;5005143;28;20396;-95
2022/02/26 13:13:15;;;;;;;0.10;0.10;;;;;;;;;;5007690;28;20032;-93
2022/02/26 13:15:42;;;;;;;0.10;0.10;;;;;;;;;;5000991;28;20029;-95
2022/02/26 13:18:08;;;;;;;0.10;0.10;;;;;;;;;;5001363;28;20038;-93
2022/02/26 13:20:34;;;;;;;0.10;0.10;;;;;;;;;;5017934;28;20123;-93
2022/02/26 13:23:04;;;;;;;0.10;0.10;;;;;;;;;;5017923;28;20045;-94
2022/02/26 13:25:31;;;;;;;0.08;0.08;;;;;;;;;;5001381;28;20049;-94
2022/02/26 13:27:57;;;;;;;0.10;0.10;;;;;;;;;;5001475;28;20045;-94
2022/02/26 13:30:23;;;;;;;0.10;0.10;;;;;;;;;;5000998;28;20037;-94
2022/02/26 13:32:50;;;;;;;0.10;0.10;;;;;;;;;;5000866;28;20128;-94
2022/02/26 13:35:16;;;;;;;0.10;0.10;;;;;;;;;;5001325;28;20041;-94
2022/02/26 13:37:43;;;;;;;0.10;0.10;;;;;;;;;;5017670;28;20033;-94
2022/02/26 13:40:10;;;;;;;0.10;0.10;;;;;;;;;;5033996;28;20176;-94
2022/02/26 13:42:37;;;;;;;0.10;0.10;;;;;;;;;;5001028;28;20124;-96
2022/02/26 13:45:04;;;;;;;0.10;0.10;;;;;;;;;;5000634;28;20132;-95
2022/02/26 13:47:30;;;;;;;0.10;0.10;;;;;;;;;;5017261;28;20056;-95
2022/02/26 13:49:57;;;;;;;0.10;0.10;;;;;;;;;;5016793;28;20135;-94
2022/02/26 13:52:23;;;;;;;0.10;0.10;;;;;;;;;;5001280;28;20052;-95
2022/02/26 13:54:50;;;;;;;0.10;0.10;;;;;;;;;;5000952;28;20124;-93
2022/02/26 13:57:20;;;;;;;0.10;0.10;;;;;;;;;;5000931;28;20037;-92
2022/02/26 13:59:46;;;;;;;0.10;0.10;;;;;;;;;;5020582;28;20044;-95
2022/02/26 14:02:20;;;;;;;0.10;0.10;;;;;;;;;;5002046;28;20124;-94
2022/02/26 14:04:46;;;;;;;0.10;0.10;;;;;;;;;;5016887;28;20045;-95
2022/02/26 14:07:12;;;;;;;0.10;0.10;;;;;;;;;;5019537;28;20088;-95
2022/02/26 14:09:50;;;;;;;0.10;0.10;;;;;;;;;;5020475;28;20041;-95
2022/02/26 14:12:17;;;;;;;0.10;0.10;;;;;;;;;;5021745;28;20041;-95
2022/02/26 14:14:44;;;;;;;0.10;0.10;;;;;;;;;;5007851;28;20037;-95
2022/02/26 14:17:11;;;;;;;0.10;0.10;;;;;;;;;;5010052;28;20059;-96
2022/02/26 14:19:38;;;;;;;0.10;0.10;;;;;;;;;;5004871;28;20054;-96
2022/02/26 14:22:04;;;;;;;0.10;0.10;;;;;;;;;;5004679;28;20110;-96
2022/02/26 14:24:30;;;;;;;0.10;0.10;;;;;;;;;;5020396;28;20143;-95
2022/02/26 14:26:57;;;;;;;0.10;0.10;;;;;;;;;;5004436;28;20055;-96
2022/02/26 14:29:41;;;;;;;0.10;0.10;;;;;;;;;;5009148;28;20095;-93
2022/02/26 14:32:07;;;;;;;0.10;0.10;;;;;;;;;;5020679;28;20041;-95
2022/02/26 14:34:34;;;;;;;0.10;0.10;;;;;;;;;;5004537;28;20135;-93
2022/02/26 14:37:00;;;;;;;0.10;0.10;;;;;;;;;;5019397;28;20041;-93
2022/02/26 14:39:26;;;;;;;0.10;0.10;;;;;;;;;;5019800;28;20041;-94
2022/02/26 14:41:58;;;;;;;0.10;0.10;;;;;;;;;;5006700;28;20041;-94
2022/02/26 14:44:25;;;;;;;0.10;0.10;;;;;;;;;;5024512;28;20072;-96